Terminal Aerodrome Forecast
Issued by NWS Jackson, KY

Home | Current Version | Previous Version | Text Only | Print | Product List | Glossary On
Versions: 1 2 3 4 5 6 7 8 9 10 11 12 13 14 15 16 17 18
000
FTUS43 KJKL 011700
TAFLOZ
TAF
KLOZ 011734Z 0118/0218 25010G18KT P6SM SCT040
      TEMPO 0119/0120 VRB15G30KT 2SM -TSRA BKN025CB OVC050
     FM020000 VRB03KT P6SM SCT050 BKN250
     FM020700 18002KT 4SM BR BKN250
     FM020900 18002KT 2SM BR BKN250
     FM021200 17002KT P6SM BKN250
     FM021500 25006KT P6SM VCSH SCT050 BKN100=

USA.gov is the U.S. government's official web portal to all federal, state and local government web resources and services.